createdAt,value
2022-10-24T00:03:34.018Z,13.1
2022-10-24T00:08:40.128Z,12.9
2022-10-24T00:13:46.217Z,12.9
2022-10-24T00:18:52.317Z,12.9
2022-10-24T00:23:58.411Z,13
2022-10-24T00:29:04.512Z,13
2022-10-24T00:34:09.617Z,13
2022-10-24T00:39:15.727Z,13
2022-10-24T00:44:21.814Z,13
2022-10-24T00:49:27.907Z,13
2022-10-24T00:54:34.015Z,13
2022-10-24T00:59:40.113Z,13
2022-10-24T01:04:46.199Z,12.9
2022-10-24T01:09:52.343Z,12.9
2022-10-24T01:14:58.396Z,12.8
2022-10-24T01:20:04.489Z,12.7
2022-10-24T01:25:10.586Z,12.7
2022-10-24T01:30:16.730Z,12.8
2022-10-24T01:35:22.788Z,12.7
2022-10-24T01:40:27.910Z,12.6
2022-10-24T01:45:33.980Z,12.4
2022-10-24T01:50:40.123Z,12.2
2022-10-24T01:55:46.192Z,12.2
2022-10-24T02:00:52.351Z,12.3
2022-10-24T02:05:58.412Z,12.3
2022-10-24T02:11:04.476Z,12.1
2022-10-24T02:16:10.575Z,11.9
2022-10-24T02:21:16.679Z,11.8
2022-10-24T02:26:22.754Z,12.2
2022-10-24T02:31:28.846Z,12.5
2022-10-24T02:36:34.946Z,12.8
2022-10-24T02:41:41.050Z,12.9
2022-10-24T02:46:46.167Z,13.1
2022-10-24T02:51:52.261Z,13.2
2022-10-24T02:56:58.350Z,13.2
2022-10-24T03:02:04.454Z,13.2
2022-10-24T03:07:10.550Z,13.2
2022-10-24T03:12:16.639Z,13.2
2022-10-24T03:17:22.727Z,13.1
2022-10-24T03:22:28.842Z,13.1
2022-10-24T03:27:34.930Z,13.1
2022-10-24T03:32:41.028Z,13.1
2022-10-24T03:37:47.126Z,13.2
2022-10-24T03:42:53.236Z,13.2
2022-10-24T03:47:59.331Z,13.2
2022-10-24T03:53:04.427Z,13.3
2022-10-24T03:58:10.528Z,13.3
2022-10-24T04:03:16.642Z,13.3
2022-10-24T04:08:22.715Z,13.2
2022-10-24T04:13:28.888Z,13.3
2022-10-24T04:18:34.914Z,13.3
2022-10-24T04:23:41.010Z,13.2
2022-10-24T04:28:47.128Z,13.3
2022-10-24T04:33:53.219Z,13.3
2022-10-24T04:38:59.301Z,13.3
2022-10-24T04:44:05.409Z,13.3
2022-10-24T04:49:11.519Z,13.2
2022-10-24T04:54:17.610Z,13.1
2022-10-24T04:59:22.700Z,13.1
2022-10-24T05:04:28.810Z,13
2022-10-24T05:09:34.922Z,13.1
2022-10-24T05:14:41.001Z,13.4
2022-10-24T05:19:47.161Z,13.7
2022-10-24T05:29:59.291Z,13.9
2022-10-24T05:35:05.386Z,14.1
2022-10-24T05:40:11.541Z,14.3
2022-10-24T05:45:17.657Z,14.3
2022-10-24T05:50:23.662Z,14.3
2022-10-24T05:55:29.774Z,14.5
2022-10-24T06:00:35.873Z,14.5
2022-10-24T06:05:41.017Z,14.5
2022-10-24T06:10:47.090Z,14.5
2022-10-24T06:15:53.236Z,14.6
2022-10-24T06:20:59.315Z,14.6
2022-10-24T06:26:05.393Z,14.6
2022-10-24T06:31:11.462Z,14.6
2022-10-24T06:36:17.644Z,14.6
2022-10-24T06:41:23.718Z,14.6
2022-10-24T06:46:29.792Z,14.6
2022-10-24T06:51:35.857Z,14.7
2022-10-24T06:56:41.981Z,14.8
2022-10-24T07:01:48.047Z,14.9
2022-10-24T07:06:54.191Z,15
2022-10-24T07:11:59.273Z,15.1
2022-10-24T07:17:05.379Z,15.2
2022-10-24T07:22:11.461Z,15.3
2022-10-24T07:27:17.555Z,15.4
2022-10-24T07:32:23.658Z,15.4
2022-10-24T07:37:29.790Z,15.5
2022-10-24T07:42:35.851Z,15.5
2022-10-24T07:47:41.943Z,15.6
2022-10-24T07:52:48.032Z,15.7
2022-10-24T07:57:54.130Z,15.9
2022-10-24T08:03:00.260Z,16
2022-10-24T08:08:06.334Z,16.1
2022-10-24T08:13:12.432Z,16.2
2022-10-24T08:18:17.555Z,16.3
2022-10-24T08:23:23.627Z,16.5
2022-10-24T08:28:29.737Z,16.6
2022-10-24T08:33:35.816Z,16.8
2022-10-24T08:38:41.926Z,16.9
2022-10-24T08:43:48.113Z,17.1
2022-10-24T08:48:54.112Z,17.2
2022-10-24T08:54:00.212Z,17.2
2022-10-24T08:59:06.289Z,17.3
2022-10-24T09:04:12.387Z,17.4
2022-10-24T09:09:18.480Z,17.5
2022-10-24T09:14:24.737Z,17.5
2022-10-24T09:19:30.665Z,17.6
2022-10-24T09:24:35.776Z,17.7
2022-10-24T09:29:41.947Z,17.8
2022-10-24T09:34:47.974Z,18
2022-10-24T09:39:54.060Z,18.1
2022-10-24T09:45:00.150Z,18.1
2022-10-24T09:50:06.262Z,18.1
2022-10-24T09:55:12.359Z,18.2
2022-10-24T10:00:18.437Z,18.2
2022-10-24T10:05:24.538Z,18.2
2022-10-24T10:10:30.626Z,18.1
2022-10-24T10:15:36.734Z,18.1
2022-10-24T10:20:42.819Z,18
2022-10-24T10:25:48.928Z,17.9
2022-10-24T10:30:54.032Z,17.9
2022-10-24T10:36:00.131Z,17.9
2022-10-24T10:41:06.228Z,17.8
2022-10-24T10:46:12.326Z,17.9
2022-10-24T10:51:18.405Z,18
2022-10-24T10:56:24.538Z,18.1
2022-10-24T11:01:30.592Z,18.1
2022-10-24T11:06:36.706Z,18.1
2022-10-24T11:11:42.799Z,18.1
2022-10-24T11:16:48.897Z,18.2
2022-10-24T11:21:54.992Z,18.2
2022-10-24T11:27:01.073Z,18.3
2022-10-24T11:32:07.171Z,18.4
2022-10-24T11:37:12.316Z,18.5
2022-10-24T11:42:18.373Z,18.8
2022-10-24T11:47:24.462Z,19.2
2022-10-24T11:52:30.561Z,19.6
2022-10-24T11:57:36.664Z,19.7
2022-10-24T12:02:42.761Z,20
2022-10-24T12:07:48.862Z,20
2022-10-24T12:12:54.965Z,20
2022-10-24T12:18:01.044Z,20.1
2022-10-24T12:23:07.150Z,20.1
2022-10-24T12:28:13.260Z,20
2022-10-24T12:33:19.349Z,20
2022-10-24T12:38:25.434Z,19.9
2022-10-24T12:43:30.539Z,19.9
2022-10-24T12:48:36.637Z,19.8
2022-10-24T12:53:42.726Z,19.8
2022-10-24T12:58:48.847Z,19.8
2022-10-24T13:03:54.933Z,19.6
2022-10-24T13:09:01.046Z,19.4
2022-10-24T13:14:06.154Z,19.3
2022-10-24T13:19:12.232Z,19.3
2022-10-24T13:24:18.338Z,19.3
2022-10-24T13:29:24.439Z,19.5
2022-10-24T13:34:30.526Z,19.8
2022-10-24T13:39:36.695Z,20
2022-10-24T13:44:42.730Z,19.9
2022-10-24T13:49:48.816Z,20.1
2022-10-24T13:54:54.893Z,19.7
2022-10-24T14:00:01.023Z,19.4
2022-10-24T14:05:07.108Z,19.4
2022-10-24T14:10:13.210Z,19.9
2022-10-24T14:15:19.299Z,19.9
2022-10-24T14:20:24.420Z,19.2
2022-10-24T14:25:30.503Z,19.1
2022-10-24T14:30:36.609Z,19
2022-10-24T14:35:42.690Z,19
2022-10-24T14:40:48.780Z,18.9
2022-10-24T14:45:54.882Z,19
2022-10-24T14:51:00.992Z,18.8
2022-10-24T14:56:07.079Z,18.5
2022-10-24T15:01:13.183Z,18.4
2022-10-24T15:06:19.262Z,18.3
2022-10-24T15:11:25.371Z,18.1
2022-10-24T15:16:31.494Z,18
2022-10-24T15:21:37.551Z,17.9
2022-10-24T15:26:42.676Z,17.8
2022-10-24T15:31:48.780Z,17.8
2022-10-24T15:36:54.856Z,17.7
2022-10-24T15:42:00.942Z,17.5
2022-10-24T15:47:07.035Z,17.5
2022-10-24T15:52:13.143Z,17.4
2022-10-24T15:57:19.237Z,17.3
2022-10-24T16:02:25.335Z,17.3
2022-10-24T16:07:31.431Z,17.2
2022-10-24T16:12:37.534Z,17.2
2022-10-24T16:17:43.635Z,17.1
2022-10-24T16:22:49.700Z,17.1
2022-10-24T16:27:55.804Z,17
2022-10-24T16:33:00.920Z,17
2022-10-24T16:38:07.020Z,17
2022-10-24T16:43:13.104Z,16.9
2022-10-24T16:48:19.189Z,17
2022-10-24T16:53:25.285Z,16.9
2022-10-24T16:58:31.384Z,16.9
2022-10-24T17:03:37.484Z,16.9
2022-10-24T17:08:43.573Z,17
2022-10-24T17:13:49.661Z,16.9
2022-10-24T17:18:55.761Z,16.9
2022-10-24T17:24:01.862Z,16.8
2022-10-24T17:29:07.963Z,16.8
2022-10-24T17:34:14.040Z,16.8
2022-10-24T17:39:19.162Z,16.7
2022-10-24T17:44:25.265Z,16.6
2022-10-24T17:49:31.347Z,16.6
2022-10-24T17:54:37.455Z,16.5
2022-10-24T17:59:43.551Z,16.5
2022-10-24T18:04:49.647Z,16.4
2022-10-24T18:09:55.743Z,16.3
2022-10-24T18:15:01.823Z,16.4
2022-10-24T18:20:07.922Z,16.3
2022-10-24T18:25:14.028Z,16.4
2022-10-24T18:30:20.126Z,16.4
2022-10-24T18:35:26.208Z,16.4
2022-10-24T18:40:32.347Z,16.4
2022-10-24T18:45:37.457Z,16.2
2022-10-24T18:50:43.536Z,16.1
2022-10-24T18:55:49.614Z,15.8
2022-10-24T19:00:55.718Z,15.7
2022-10-24T19:06:01.804Z,15.4
2022-10-24T19:11:07.919Z,15.2
2022-10-24T19:16:14.024Z,15.2
2022-10-24T19:21:20.138Z,15.3
2022-10-24T19:26:26.194Z,15.4
2022-10-24T19:31:32.295Z,15.5
2022-10-24T19:36:38.402Z,15.4
2022-10-24T19:41:44.494Z,15.2
2022-10-24T19:46:50.584Z,15.1
2022-10-24T19:51:55.695Z,15
2022-10-24T19:57:01.801Z,15
2022-10-24T20:02:07.887Z,14.9
2022-10-24T20:12:20.108Z,14.8
2022-10-24T20:17:26.182Z,14.7
2022-10-24T20:22:32.285Z,14.7
2022-10-24T20:27:38.386Z,14.7
2022-10-24T20:32:44.486Z,14.8
2022-10-24T20:37:50.587Z,15
2022-10-24T20:42:56.695Z,15
2022-10-24T20:48:02.797Z,15
2022-10-24T20:53:08.877Z,14.9
2022-10-24T20:58:14.015Z,14.9
2022-10-24T21:03:20.097Z,14.9
2022-10-24T21:08:26.206Z,14.8
2022-10-24T21:13:32.276Z,14.9
2022-10-24T21:18:38.370Z,14.8
2022-10-24T21:23:44.461Z,14.8
2022-10-24T21:28:50.567Z,14.7
2022-10-24T21:33:56.700Z,14.7
2022-10-24T21:39:02.773Z,14.8
2022-10-24T21:44:08.878Z,14.8
2022-10-24T21:49:14.972Z,14.8
2022-10-24T21:54:21.061Z,14.7
2022-10-24T21:59:27.202Z,14.7
2022-10-24T22:04:32.333Z,14.8
2022-10-24T22:09:38.363Z,14.9
2022-10-24T22:14:44.523Z,15.1
2022-10-24T22:19:50.587Z,15.2
2022-10-24T22:24:56.659Z,15.2
2022-10-24T22:30:02.773Z,15.1
2022-10-24T22:35:08.939Z,15.2
2022-10-24T22:40:14.997Z,15.3
2022-10-24T22:45:21.079Z,15.2
2022-10-24T22:50:27.150Z,15.2
2022-10-24T22:55:33.331Z,15.2
2022-10-24T23:00:39.345Z,15.3
2022-10-24T23:05:45.504Z,15.2
2022-10-24T23:10:50.605Z,15.2
2022-10-24T23:15:56.652Z,15.1
2022-10-24T23:21:02.761Z,15
2022-10-24T23:26:08.856Z,15
2022-10-24T23:31:14.944Z,15
2022-10-24T23:36:21.075Z,15.1
2022-10-24T23:41:27.139Z,15.2
2022-10-24T23:46:33.231Z,15.2
2022-10-24T23:51:39.334Z,15.2
2022-10-24T23:56:45.429Z,15.3
